sensor_id;sensor_type;location;lat;lon;timestamp;pressure;altitude;pressure_sealevel;temperature;humidity
70815;BME280;58428;49.478;10.986;2024-03-22T00:02:25;99134.59;;;7.99;100.00
70815;BME280;58428;49.478;10.986;2024-03-22T00:04:51;99138.16;;;7.95;100.00
70815;BME280;58428;49.478;10.986;2024-03-22T00:07:16;99133.06;;;7.93;100.00
70815;BME280;58428;49.478;10.986;2024-03-22T00:09:47;99129.06;;;7.91;100.00
70815;BME280;58428;49.478;10.986;2024-03-22T00:12:15;99130.97;;;7.90;100.00
70815;BME280;58428;49.478;10.986;2024-03-22T00:14:41;99129.88;;;7.91;100.00
70815;BME280;58428;49.478;10.986;2024-03-22T00:17:08;99130.19;;;7.90;100.00
70815;BME280;58428;49.478;10.986;2024-03-22T00:19:34;99122.38;;;7.88;100.00
70815;BME280;58428;49.478;10.986;2024-03-22T00:22:01;99124.56;;;7.86;100.00
70815;BME280;58428;49.478;10.986;2024-03-22T00:24:27;99120.41;;;7.94;100.00
70815;BME280;58428;49.478;10.986;2024-03-22T00:26:52;99112.41;;;7.89;100.00
70815;BME280;58428;49.478;10.986;2024-03-22T00:29:18;99121.34;;;7.84;100.00
70815;BME280;58428;49.478;10.986;2024-03-22T00:31:43;99108.53;;;7.76;100.00
70815;BME280;58428;49.478;10.986;2024-03-22T00:34:09;99107.72;;;7.76;100.00
70815;BME280;58428;49.478;10.986;2024-03-22T00:36:37;99100.53;;;7.71;100.00
70815;BME280;58428;49.478;10.986;2024-03-22T00:39:04;99101.13;;;7.69;100.00
70815;BME280;58428;49.478;10.986;2024-03-22T00:41:29;99104.38;;;7.66;100.00
70815;BME280;58428;49.478;10.986;2024-03-22T00:43:57;99089.34;;;7.65;100.00
70815;BME280;58428;49.478;10.986;2024-03-22T00:46:23;99094.72;;;7.65;100.00
70815;BME280;58428;49.478;10.986;2024-03-22T00:48:48;99095.28;;;7.62;100.00
70815;BME280;58428;49.478;10.986;2024-03-22T00:51:14;99099.09;;;7.61;100.00
70815;BME280;58428;49.478;10.986;2024-03-22T00:53:39;99097.75;;;7.58;100.00
70815;BME280;58428;49.478;10.986;2024-03-22T00:56:05;99087.50;;;7.42;100.00
70815;BME280;58428;49.478;10.986;2024-03-22T00:58:30;99090.75;;;7.39;100.00
70815;BME280;58428;49.478;10.986;2024-03-22T01:00:56;99097.00;;;7.34;100.00
70815;BME280;58428;49.478;10.986;2024-03-22T01:03:22;99088.69;;;7.31;100.00
70815;BME280;58428;49.478;10.986;2024-03-22T01:05:48;99087.16;;;7.25;100.00
70815;BME280;58428;49.478;10.986;2024-03-22T01:08:17;99088.53;;;7.23;100.00
70815;BME280;58428;49.478;10.986;2024-03-22T01:10:42;99088.91;;;7.16;100.00
70815;BME280;58428;49.478;10.986;2024-03-22T01:13:08;99075.97;;;7.18;100.00
70815;BME280;58428;49.478;10.986;2024-03-22T01:15:33;99066.03;;;7.14;100.00
70815;BME280;58428;49.478;10.986;2024-03-22T01:17:58;99079.28;;;7.10;100.00
70815;BME280;58428;49.478;10.986;2024-03-22T01:20:24;99074.19;;;7.09;100.00
70815;BME280;58428;49.478;10.986;2024-03-22T01:22:51;99062.09;;;7.06;100.00
70815;BME280;58428;49.478;10.986;2024-03-22T01:25:19;99077.16;;;7.07;100.00
70815;BME280;58428;49.478;10.986;2024-03-22T01:27:48;99075.63;;;7.01;100.00
70815;BME280;58428;49.478;10.986;2024-03-22T01:30:13;99083.72;;;6.96;100.00
70815;BME280;58428;49.478;10.986;2024-03-22T01:32:38;99080.88;;;6.88;100.00
70815;BME280;58428;49.478;10.986;2024-03-22T01:35:04;99081.75;;;6.84;100.00
70815;BME280;58428;49.478;10.986;2024-03-22T01:37:30;99080.75;;;6.75;100.00
70815;BME280;58428;49.478;10.986;2024-03-22T01:39:55;99082.94;;;6.73;100.00
70815;BME280;58428;49.478;10.986;2024-03-22T01:42:20;99085.91;;;6.71;100.00
70815;BME280;58428;49.478;10.986;2024-03-22T01:44:46;99080.34;;;6.63;100.00
70815;BME280;58428;49.478;10.986;2024-03-22T01:47:13;99074.47;;;6.61;100.00
70815;BME280;58428;49.478;10.986;2024-03-22T01:49:39;99080.41;;;6.58;100.00
70815;BME280;58428;49.478;10.986;2024-03-22T01:52:23;99086.97;;;6.47;100.00
70815;BME280;58428;49.478;10.986;2024-03-22T01:54:50;99086.97;;;6.47;100.00
70815;BME280;58428;49.478;10.986;2024-03-22T01:57:15;99078.94;;;6.42;100.00
70815;BME280;58428;49.478;10.986;2024-03-22T01:59:42;99069.56;;;6.40;100.00
70815;BME280;58428;49.478;10.986;2024-03-22T02:02:07;99065.50;;;6.42;100.00
70815;BME280;58428;49.478;10.986;2024-03-22T02:04:33;99066.59;;;6.41;100.00
70815;BME280;58428;49.478;10.986;2024-03-22T02:06:58;99057.75;;;6.41;100.00
70815;BME280;58428;49.478;10.986;2024-03-22T02:09:24;99052.13;;;6.37;100.00
70815;BME280;58428;49.478;10.986;2024-03-22T02:11:52;99051.03;;;6.38;100.00
70815;BME280;58428;49.478;10.986;2024-03-22T02:14:18;99041.13;;;6.34;100.00
70815;BME280;58428;49.478;10.986;2024-03-22T02:16:44;99033.69;;;6.26;100.00
70815;BME280;58428;49.478;10.986;2024-03-22T02:19:12;99028.03;;;6.27;100.00
70815;BME280;58428;49.478;10.986;2024-03-22T02:21:37;99026.19;;;6.23;100.00
70815;BME280;58428;49.478;10.986;2024-03-22T02:24:05;99020.81;;;6.23;100.00
70815;BME280;58428;49.478;10.986;2024-03-22T02:26:30;99033.22;;;6.19;100.00
70815;BME280;58428;49.478;10.986;2024-03-22T02:28:56;99033.28;;;6.14;100.00
70815;BME280;58428;49.478;10.986;2024-03-22T02:31:21;99033.38;;;6.04;100.00
70815;BME280;58428;49.478;10.986;2024-03-22T02:37:12;99036.69;;;5.91;100.00
70815;BME280;58428;49.478;10.986;2024-03-22T02:39:37;99026.28;;;5.85;100.00
70815;BME280;58428;49.478;10.986;2024-03-22T02:42:03;99027.91;;;5.81;100.00
70815;BME280;58428;49.478;10.986;2024-03-22T02:44:28;99020.13;;;5.80;100.00
70815;BME280;58428;49.478;10.986;2024-03-22T02:46:54;99027.41;;;5.79;100.00
70815;BME280;58428;49.478;10.986;2024-03-22T02:49:19;99016.91;;;5.83;100.00
70815;BME280;58428;49.478;10.986;2024-03-22T02:51:45;99013.66;;;5.86;100.00
70815;BME280;58428;49.478;10.986;2024-03-22T02:54:10;99013.66;;;5.86;100.00
70815;BME280;58428;49.478;10.986;2024-03-22T02:56:36;99014.16;;;5.87;100.00
70815;BME280;58428;49.478;10.986;2024-03-22T02:59:07;99012.56;;;5.87;100.00
70815;BME280;58428;49.478;10.986;2024-03-22T03:01:32;99017.13;;;5.86;100.00
70815;BME280;58428;49.478;10.986;2024-03-22T03:04:05;99011.75;;;5.86;100.00
70815;BME280;58428;49.478;10.986;2024-03-22T03:06:31;99005.59;;;5.86;100.00
70815;BME280;58428;49.478;10.986;2024-03-22T03:08:56;98996.75;;;5.85;100.00
70815;BME280;58428;49.478;10.986;2024-03-22T03:11:22;98998.63;;;5.85;100.00
70815;BME280;58428;49.478;10.986;2024-03-22T03:13:48;98991.09;;;5.87;100.00
70815;BME280;58428;49.478;10.986;2024-03-22T03:16:13;98988.41;;;5.87;100.00
70815;BME280;58428;49.478;10.986;2024-03-22T03:18:38;98984.13;;;5.81;100.00
70815;BME280;58428;49.478;10.986;2024-03-22T03:21:04;98994.31;;;5.84;100.00
70815;BME280;58428;49.478;10.986;2024-03-22T03:23:30;98997.78;;;5.89;100.00
70815;BME280;58428;49.478;10.986;2024-03-22T03:25:55;98995.38;;;5.87;100.00
70815;BME280;58428;49.478;10.986;2024-03-22T03:28:21;99001.00;;;5.86;100.00
70815;BME280;58428;49.478;10.986;2024-03-22T03:30:46;98999.72;;;5.79;100.00
70815;BME280;58428;49.478;10.986;2024-03-22T03:33:14;98997.03;;;5.79;100.00
70815;BME280;58428;49.478;10.986;2024-03-22T03:35:39;98995.22;;;5.74;100.00
70815;BME280;58428;49.478;10.986;2024-03-22T03:38:05;98999.00;;;5.73;100.00
70815;BME280;58428;49.478;10.986;2024-03-22T03:40:30;98994.41;;;5.74;100.00
70815;BME280;58428;49.478;10.986;2024-03-22T03:42:56;98997.91;;;5.69;100.00
70815;BME280;58428;49.478;10.986;2024-03-22T03:45:22;98994.72;;;5.67;100.00
70815;BME280;58428;49.478;10.986;2024-03-22T03:47:49;98995.25;;;5.64;100.00
70815;BME280;58428;49.478;10.986;2024-03-22T03:50:16;98993.94;;;5.62;100.00
70815;BME280;58428;49.478;10.986;2024-03-22T03:52:42;98992.63;;;5.59;100.00
70815;BME280;58428;49.478;10.986;2024-03-22T03:55:09;98992.66;;;5.54;100.00
70815;BME280;58428;49.478;10.986;2024-03-22T03:57:35;98999.59;;;5.55;100.00
70815;BME280;58428;49.478;10.986;2024-03-22T04:00:01;98989.19;;;5.54;100.00
70815;BME280;58428;49.478;10.986;2024-03-22T04:02:26;98994.78;;;5.57;100.00
70815;BME280;58428;49.478;10.986;2024-03-22T04:04:52;98989.69;;;5.56;100.00
70815;BME280;58428;49.478;10.986;2024-03-22T04:07:21;98997.22;;;5.54;100.00
70815;BME280;58428;49.478;10.986;2024-03-22T04:09:46;98987.81;;;5.56;100.00
70815;BME280;58428;49.478;10.986;2024-03-22T04:12:13;98993.72;;;5.53;100.00
70815;BME280;58428;49.478;10.986;2024-03-22T04:14:39;98989.47;;;5.47;100.00
70815;BME280;58428;49.478;10.986;2024-03-22T04:17:04;98990.59;;;5.42;100.00
70815;BME280;58428;49.478;10.986;2024-03-22T04:19:29;98992.22;;;5.43;100.00
70815;BME280;58428;49.478;10.986;2024-03-22T04:21:57;98990.03;;;5.45;100.00
70815;BME280;58428;49.478;10.986;2024-03-22T04:24:23;98979.63;;;5.38;100.00
70815;BME280;58428;49.478;10.986;2024-03-22T04:26:48;98983.63;;;5.41;100.00
70815;BME280;58428;49.478;10.986;2024-03-22T04:29:16;98990.59;;;5.42;100.00
70815;BME280;58428;49.478;10.986;2024-03-22T04:31:42;98985.53;;;5.35;100.00
70815;BME280;58428;49.478;10.986;2024-03-22T04:34:07;98988.75;;;5.37;100.00
70815;BME280;58428;49.478;10.986;2024-03-22T04:36:33;98985.03;;;5.33;100.00
70815;BME280;58428;49.478;10.986;2024-03-22T04:39:00;98987.44;;;5.35;100.00
70815;BME280;58428;49.478;10.986;2024-03-22T04:41:25;98986.91;;;5.33;100.00
70815;BME280;58428;49.478;10.986;2024-03-22T04:43:51;98992.56;;;5.31;100.00
70815;BME280;58428;49.478;10.986;2024-03-22T04:46:16;98990.41;;;5.28;100.00
70815;BME280;58428;49.478;10.986;2024-03-22T04:48:44;98990.19;;;5.25;100.00
70815;BME280;58428;49.478;10.986;2024-03-22T04:51:09;98997.72;;;5.18;100.00
70815;BME280;58428;49.478;10.986;2024-03-22T04:53:35;98990.78;;;5.12;100.00
70815;BME280;58428;49.478;10.986;2024-03-22T04:56:00;98988.44;;;5.06;100.00
70815;BME280;58428;49.478;10.986;2024-03-22T04:58:26;98993.25;;;5.04;100.00
70815;BME280;58428;49.478;10.986;2024-03-22T05:00:57;98990.88;;;4.97;100.00
70815;BME280;58428;49.478;10.986;2024-03-22T05:03:22;98986.34;;;4.93;100.00
70815;BME280;58428;49.478;10.986;2024-03-22T05:05:49;98984.50;;;4.88;100.00
70815;BME280;58428;49.478;10.986;2024-03-22T05:08:15;98987.97;;;4.89;100.00
70815;BME280;58428;49.478;10.986;2024-03-22T05:10:42;98981.81;;;4.83;100.00
70815;BME280;58428;49.478;10.986;2024-03-22T05:13:07;98983.19;;;4.81;100.00
70815;BME280;58428;49.478;10.986;2024-03-22T05:15:33;98985.59;;;4.77;100.00
70815;BME280;58428;49.478;10.986;2024-03-22T05:18:00;98984.00;;;4.76;100.00
70815;BME280;58428;49.478;10.986;2024-03-22T05:20:25;98978.94;;;4.75;100.00
70815;BME280;58428;49.478;10.986;2024-03-22T05:22:54;98983.75;;;4.73;100.00
70815;BME280;58428;49.478;10.986;2024-03-22T05:25:20;98978.41;;;4.68;100.00
70815;BME280;58428;49.478;10.986;2024-03-22T05:27:45;98978.13;;;4.70;100.00
70815;BME280;58428;49.478;10.986;2024-03-22T05:30:13;98978.13;;;4.70;100.00
70815;BME280;58428;49.478;10.986;2024-03-22T05:32:40;98969.31;;;4.69;100.00
70815;BME280;58428;49.478;10.986;2024-03-22T05:35:06;98964.19;;;4.73;100.00
70815;BME280;58428;49.478;10.986;2024-03-22T05:37:32;98969.78;;;4.76;100.00
70815;BME280;58428;49.478;10.986;2024-03-22T05:40:07;98966.56;;;4.79;100.00
70815;BME280;58428;49.478;10.986;2024-03-22T05:42:53;98953.97;;;4.84;100.00
70815;BME280;58428;49.478;10.986;2024-03-22T05:45:18;98960.88;;;4.90;100.00
70815;BME280;58428;49.478;10.986;2024-03-22T05:47:47;98961.16;;;4.94;100.00
70815;BME280;58428;49.478;10.986;2024-03-22T05:50:24;98954.38;;;5.01;100.00
70815;BME280;58428;49.478;10.986;2024-03-22T05:52:50;98958.13;;;5.05;100.00
70815;BME280;58428;49.478;10.986;2024-03-22T05:55:18;98949.25;;;5.10;100.00
70815;BME280;58428;49.478;10.986;2024-03-22T05:57:52;98942.53;;;5.12;100.00
70815;BME280;58428;49.478;10.986;2024-03-22T06:00:19;98940.03;;;5.20;100.00
70815;BME280;58428;49.478;10.986;2024-03-22T06:02:55;98950.22;;;5.23;100.00
70815;BME280;58428;49.478;10.986;2024-03-22T06:05:21;98949.13;;;5.24;100.00
70815;BME280;58428;49.478;10.986;2024-03-22T06:07:47;98947.19;;;5.35;100.00
70815;BME280;58428;49.478;10.986;2024-03-22T06:10:13;98944.19;;;5.41;100.00
70815;BME280;58428;49.478;10.986;2024-03-22T06:12:38;98943.06;;;5.47;100.00
70815;BME280;58428;49.478;10.986;2024-03-22T06:15:04;98934.75;;;5.48;100.00
70815;BME280;58428;49.478;10.986;2024-03-22T06:17:32;98925.81;;;5.58;100.00
70815;BME280;58428;49.478;10.986;2024-03-22T06:19:58;98913.66;;;5.65;100.00
70815;BME280;58428;49.478;10.986;2024-03-22T06:22:24;98925.41;;;5.74;100.00
70815;BME280;58428;49.478;10.986;2024-03-22T06:24:50;98917.03;;;5.81;100.00
70815;BME280;58428;49.478;10.986;2024-03-22T06:27:16;98915.06;;;5.91;100.00
70815;BME280;58428;49.478;10.986;2024-03-22T06:29:42;98910.59;;;6.05;100.00
70815;BME280;58428;49.478;10.986;2024-03-22T06:32:09;98904.09;;;6.11;100.00
70815;BME280;58428;49.478;10.986;2024-03-22T06:34:35;98905.59;;;6.22;100.00
70815;BME280;58428;49.478;10.986;2024-03-22T06:37:01;98909.69;;;6.37;100.00
70815;BME280;58428;49.478;10.986;2024-03-22T06:39:30;98909.00;;;6.50;100.00
70815;BME280;58428;49.478;10.986;2024-03-22T06:41:55;98910.19;;;6.62;100.00
70815;BME280;58428;49.478;10.986;2024-03-22T06:44:21;98908.94;;;6.73;100.00
70815;BME280;58428;49.478;10.986;2024-03-22T06:46:47;98908.25;;;6.86;100.00
70815;BME280;58428;49.478;10.986;2024-03-22T06:49:12;98903.47;;;7.01;100.00
70815;BME280;58428;49.478;10.986;2024-03-22T06:51:38;98905.94;;;7.16;100.00
70815;BME280;58428;49.478;10.986;2024-03-22T06:54:03;98897.59;;;7.31;100.00
70815;BME280;58428;49.478;10.986;2024-03-22T06:56:29;98900.13;;;7.41;100.00
70815;BME280;58428;49.478;10.986;2024-03-22T06:58:54;98893.06;;;7.45;100.00
70815;BME280;58428;49.478;10.986;2024-03-22T07:01:21;98880.75;;;7.57;100.00
70815;BME280;58428;49.478;10.986;2024-03-22T07:03:47;98876.50;;;7.69;100.00
70815;BME280;58428;49.478;10.986;2024-03-22T07:06:14;98876.53;;;7.83;100.00
70815;BME280;58428;49.478;10.986;2024-03-22T07:08:40;98875.25;;;7.94;100.00
70815;BME280;58428;49.478;10.986;2024-03-22T07:11:08;98877.38;;;8.10;100.00
70815;BME280;58428;49.478;10.986;2024-03-22T07:13:34;98870.88;;;8.24;100.00
70815;BME280;58428;49.478;10.986;2024-03-22T07:16:00;98865.81;;;8.36;100.00
70815;BME280;58428;49.478;10.986;2024-03-22T07:18:25;98871.38;;;8.53;100.00
70815;BME280;58428;49.478;10.986;2024-03-22T07:20:51;98862.47;;;8.66;100.00
70815;BME280;58428;49.478;10.986;2024-03-22T07:23:18;98872.56;;;8.74;100.00
70815;BME280;58428;49.478;10.986;2024-03-22T07:25:46;98865.03;;;8.84;100.00
70815;BME280;58428;49.478;10.986;2024-03-22T07:28:13;98864.34;;;8.79;100.00
70815;BME280;58428;49.478;10.986;2024-03-22T07:30:39;98863.41;;;8.96;100.00
70815;BME280;58428;49.478;10.986;2024-03-22T07:33:04;98859.66;;;9.06;100.00
70815;BME280;58428;49.478;10.986;2024-03-22T07:35:30;98859.84;;;9.09;100.00
70815;BME280;58428;49.478;10.986;2024-03-22T07:37:56;98857.59;;;9.24;100.00
70815;BME280;58428;49.478;10.986;2024-03-22T07:40:22;98856.56;;;9.34;100.00
70815;BME280;58428;49.478;10.986;2024-03-22T07:42:50;98855.63;;;9.38;100.00
70815;BME280;58428;49.478;10.986;2024-03-22T07:45:16;98862.56;;;9.53;100.00
70815;BME280;58428;49.478;10.986;2024-03-22T07:47:41;98863.13;;;9.63;100.00
70815;BME280;58428;49.478;10.986;2024-03-22T07:50:09;98856.97;;;9.71;100.00
70815;BME280;58428;49.478;10.986;2024-03-22T07:52:34;98855.41;;;9.78;100.00
70815;BME280;58428;49.478;10.986;2024-03-22T07:55:00;98850.53;;;9.89;100.00
70815;BME280;58428;49.478;10.986;2024-03-22T07:57:28;98860.94;;;9.95;100.00
70815;BME280;58428;49.478;10.986;2024-03-22T07:59:56;98854.81;;;10.11;100.00
70815;BME280;58428;49.478;10.986;2024-03-22T08:02:25;98855.31;;;10.22;100.00
70815;BME280;58428;49.478;10.986;2024-03-22T08:04:50;98849.19;;;10.38;100.00
70815;BME280;58428;49.478;10.986;2024-03-22T08:07:16;98843.66;;;10.51;100.00
70815;BME280;58428;49.478;10.986;2024-03-22T08:09:41;98848.47;;;10.63;100.00
70815;BME280;58428;49.478;10.986;2024-03-22T08:12:08;98837.81;;;10.74;100.00
70815;BME280;58428;49.478;10.986;2024-03-22T08:14:35;98848.16;;;10.89;100.00
70815;BME280;58428;49.478;10.986;2024-03-22T08:17:00;98833.22;;;10.92;100.00
70815;BME280;58428;49.478;10.986;2024-03-22T08:19:28;98837.34;;;10.81;100.00
70815;BME280;58428;49.478;10.986;2024-03-22T08:21:55;98837.78;;;10.66;100.00
70815;BME280;58428;49.478;10.986;2024-03-22T08:24:24;98836.06;;;10.78;100.00
70815;BME280;58428;49.478;10.986;2024-03-22T08:26:51;98821.44;;;10.88;100.00
70815;BME280;58428;49.478;10.986;2024-03-22T08:29:18;98820.00;;;10.90;100.00
70815;BME280;58428;49.478;10.986;2024-03-22T08:31:46;98820.94;;;10.69;100.00
70815;BME280;58428;49.478;10.986;2024-03-22T08:34:11;98826.00;;;10.62;100.00
70815;BME280;58428;49.478;10.986;2024-03-22T08:36:37;98825.56;;;10.68;100.00
70815;BME280;58428;49.478;10.986;2024-03-22T08:39:03;98831.88;;;10.64;100.00
70815;BME280;58428;49.478;10.986;2024-03-22T08:41:28;98828.56;;;10.75;100.00
70815;BME280;58428;49.478;10.986;2024-03-22T08:43:55;98833.19;;;10.75;100.00
70815;BME280;58428;49.478;10.986;2024-03-22T08:46:22;98823.16;;;10.75;100.00
70815;BME280;58428;49.478;10.986;2024-03-22T08:48:51;98826.03;;;10.79;100.00
70815;BME280;58428;49.478;10.986;2024-03-22T08:51:18;98818.88;;;10.83;100.00
70815;BME280;58428;49.478;10.986;2024-03-22T08:53:43;98820.16;;;11.02;100.00
70815;BME280;58428;49.478;10.986;2024-03-22T08:56:10;98817.44;;;11.19;100.00
70815;BME280;58428;49.478;10.986;2024-03-22T08:58:36;98810.56;;;11.38;100.00
70815;BME280;58428;49.478;10.986;2024-03-22T09:01:03;98814.41;;;11.54;100.00
70815;BME280;58428;49.478;10.986;2024-03-22T09:03:31;98808.16;;;11.62;100.00
70815;BME280;58428;49.478;10.986;2024-03-22T09:05:56;98804.16;;;11.59;100.00
70815;BME280;58428;49.478;10.986;2024-03-22T09:08:22;98807.84;;;11.55;100.00
70815;BME280;58428;49.478;10.986;2024-03-22T09:10:48;98803.53;;;11.62;100.00
70815;BME280;58428;49.478;10.986;2024-03-22T09:13:13;98803.03;;;11.77;100.00
70815;BME280;58428;49.478;10.986;2024-03-22T09:15:40;98792.28;;;11.89;100.00
70815;BME280;58428;49.478;10.986;2024-03-22T09:18:06;98793.97;;;12.02;100.00
70815;BME280;58428;49.478;10.986;2024-03-22T09:20:33;98793.59;;;12.12;100.00
70815;BME280;58428;49.478;10.986;2024-03-22T09:23:00;98787.16;;;12.24;100.00
70815;BME280;58428;49.478;10.986;2024-03-22T09:25:27;98783.91;;;12.39;100.00
70815;BME280;58428;49.478;10.986;2024-03-22T09:27:53;98783.00;;;12.55;100.00
70815;BME280;58428;49.478;10.986;2024-03-22T09:30:20;98774.91;;;12.67;100.00
70815;BME280;58428;49.478;10.986;2024-03-22T09:32:47;98778.19;;;12.81;100.00
70815;BME280;58428;49.478;10.986;2024-03-22T09:35:15;98769.59;;;12.99;100.00
70815;BME280;58428;49.478;10.986;2024-03-22T09:37:44;98761.75;;;13.18;100.00
70815;BME280;58428;49.478;10.986;2024-03-22T09:40:09;98762.63;;;13.42;100.00
70815;BME280;58428;49.478;10.986;2024-03-22T09:42:37;98765.16;;;13.59;100.00
70815;BME280;58428;49.478;10.986;2024-03-22T09:45:06;98756.56;;;13.69;100.00
70815;BME280;58428;49.478;10.986;2024-03-22T09:47:33;98742.75;;;13.86;100.00
70815;BME280;58428;49.478;10.986;2024-03-22T09:50:00;98737.84;;;14.11;100.00
70815;BME280;58428;49.478;10.986;2024-03-22T09:52:26;98730.22;;;14.40;100.00
70815;BME280;58428;49.478;10.986;2024-03-22T09:54:52;98720.88;;;14.41;100.00
70815;BME280;58428;49.478;10.986;2024-03-22T09:57:19;98711.91;;;14.53;100.00
70815;BME280;58428;49.478;10.986;2024-03-22T09:59:47;98705.31;;;14.66;100.00
70815;BME280;58428;49.478;10.986;2024-03-22T10:02:16;98707.72;;;14.94;100.00
70815;BME280;58428;49.478;10.986;2024-03-22T10:04:41;98702.00;;;15.26;100.00
70815;BME280;58428;49.478;10.986;2024-03-22T10:07:08;98693.25;;;15.63;100.00
70815;BME280;58428;49.478;10.986;2024-03-22T10:09:34;98689.41;;;15.80;100.00
70815;BME280;58428;49.478;10.986;2024-03-22T10:12:02;98680.28;;;16.06;100.00
70815;BME280;58428;49.478;10.986;2024-03-22T10:14:31;98670.44;;;16.17;100.00
70815;BME280;58428;49.478;10.986;2024-03-22T10:16:58;98683.19;;;16.13;100.00
70815;BME280;58428;49.478;10.986;2024-03-22T10:19:24;98671.13;;;16.14;100.00
70815;BME280;58428;49.478;10.986;2024-03-22T10:22:05;98671.84;;;16.26;100.00
70815;BME280;58428;49.478;10.986;2024-03-22T10:24:31;98663.03;;;16.52;100.00
70815;BME280;58428;49.478;10.986;2024-03-22T10:26:58;98655.94;;;16.47;100.00
70815;BME280;58428;49.478;10.986;2024-03-22T10:29:24;98657.19;;;16.34;100.00
70815;BME280;58428;49.478;10.986;2024-03-22T10:31:53;98657.31;;;16.22;100.00
70815;BME280;58428;49.478;10.986;2024-03-22T10:34:24;98651.78;;;16.19;100.00
70815;BME280;58428;49.478;10.986;2024-03-22T10:36:51;98650.44;;;16.13;100.00
70815;BME280;58428;49.478;10.986;2024-03-22T10:39:19;98649.66;;;16.13;100.00
70815;BME280;58428;49.478;10.986;2024-03-22T10:41:47;98646.53;;;16.14;100.00
70815;BME280;58428;49.478;10.986;2024-03-22T10:44:16;98642.06;;;16.21;100.00
70815;BME280;58428;49.478;10.986;2024-03-22T10:46:45;98640.59;;;16.24;100.00
70815;BME280;58428;49.478;10.986;2024-03-22T10:49:21;98630.09;;;16.26;100.00
70815;BME280;58428;49.478;10.986;2024-03-22T10:51:52;98636.66;;;16.40;100.00
70815;BME280;58428;49.478;10.986;2024-03-22T10:54:22;98632.56;;;16.50;100.00
70815;BME280;58428;49.478;10.986;2024-03-22T10:56:49;98622.50;;;16.54;100.00
70815;BME280;58428;49.478;10.986;2024-03-22T10:59:19;98609.13;;;16.67;100.00
70815;BME280;58428;49.478;10.986;2024-03-22T11:01:46;98605.19;;;16.65;100.00
70815;BME280;58428;49.478;10.986;2024-03-22T11:04:22;98607.84;;;16.80;100.00
70815;BME280;58428;49.478;10.986;2024-03-22T11:06:52;98610.75;;;16.91;100.00
70815;BME280;58428;49.478;10.986;2024-03-22T11:09:23;98603.34;;;16.91;100.00
70815;BME280;58428;49.478;10.986;2024-03-22T11:11:53;98600.88;;;17.05;100.00
70815;BME280;58428;49.478;10.986;2024-03-22T11:14:41;98588.47;;;17.11;100.00
70815;BME280;58428;49.478;10.986;2024-03-22T11:17:09;98580.25;;;17.07;100.00
70815;BME280;58428;49.478;10.986;2024-03-22T11:19:36;98592.53;;;17.17;100.00
70815;BME280;58428;49.478;10.986;2024-03-22T11:22:07;98570.72;;;17.42;100.00
70815;BME280;58428;49.478;10.986;2024-03-22T11:24:33;98574.53;;;17.60;100.00
70815;BME280;58428;49.478;10.986;2024-03-22T11:26:58;98571.25;;;17.51;100.00
70815;BME280;58428;49.478;10.986;2024-03-22T11:29:24;98566.19;;;17.53;100.00
70815;BME280;58428;49.478;10.986;2024-03-22T11:31:51;98558.28;;;17.70;100.00
70815;BME280;58428;49.478;10.986;2024-03-22T11:34:16;98547.63;;;17.91;100.00
70815;BME280;58428;49.478;10.986;2024-03-22T11:36:42;98545.59;;;18.10;100.00
70815;BME280;58428;49.478;10.986;2024-03-22T11:39:08;98530.84;;;18.18;100.00
70815;BME280;58428;49.478;10.986;2024-03-22T11:41:34;98535.34;;;18.37;100.00
70815;BME280;58428;49.478;10.986;2024-03-22T11:44:02;98522.13;;;18.42;100.00
70815;BME280;58428;49.478;10.986;2024-03-22T11:46:27;98523.41;;;18.51;100.00
70815;BME280;58428;49.478;10.986;2024-03-22T11:48:53;98512.09;;;18.53;100.00
70815;BME280;58428;49.478;10.986;2024-03-22T11:51:20;98511.16;;;18.75;100.00
70815;BME280;58428;49.478;10.986;2024-03-22T11:53:52;98510.81;;;18.80;100.00
70815;BME280;58428;49.478;10.986;2024-03-22T11:56:25;98510.28;;;18.31;100.00
70815;BME280;58428;49.478;10.986;2024-03-22T11:59:00;98502.00;;;18.28;100.00
70815;BME280;58428;49.478;10.986;2024-03-22T12:01:26;98500.25;;;18.45;100.00
70815;BME280;58428;49.478;10.986;2024-03-22T12:03:53;98485.13;;;18.58;100.00
70815;BME280;58428;49.478;10.986;2024-03-22T12:06:20;98495.47;;;18.75;100.00
70815;BME280;58428;49.478;10.986;2024-03-22T12:08:46;98489.34;;;18.88;100.00
70815;BME280;58428;49.478;10.986;2024-03-22T12:11:13;98482.72;;;18.89;100.00
70815;BME280;58428;49.478;10.986;2024-03-22T12:13:40;98474.19;;;18.98;100.00
70815;BME280;58428;49.478;10.986;2024-03-22T12:16:07;98478.94;;;19.04;100.00
70815;BME280;58428;49.478;10.986;2024-03-22T12:18:35;98471.88;;;19.00;100.00
70815;BME280;58428;49.478;10.986;2024-03-22T12:21:01;98476.09;;;18.94;100.00
70815;BME280;58428;49.478;10.986;2024-03-22T12:23:31;98475.59;;;18.81;100.00
70815;BME280;58428;49.478;10.986;2024-03-22T12:25:57;98467.66;;;18.70;100.00
70815;BME280;58428;49.478;10.986;2024-03-22T12:28:26;98465.16;;;18.58;100.00
70815;BME280;58428;49.478;10.986;2024-03-22T12:30:52;98462.94;;;18.70;100.00
70815;BME280;58428;49.478;10.986;2024-03-22T12:33:20;98453.59;;;18.75;100.00
70815;BME280;58428;49.478;10.986;2024-03-22T12:35:51;98455.63;;;18.84;100.00
70815;BME280;58428;49.478;10.986;2024-03-22T12:38:19;98446.72;;;18.94;100.00
70815;BME280;58428;49.478;10.986;2024-03-22T12:40:46;98440.28;;;18.77;100.00
70815;BME280;58428;49.478;10.986;2024-03-22T12:43:12;98434.47;;;18.81;100.00
70815;BME280;58428;49.478;10.986;2024-03-22T12:45:40;98428.16;;;18.78;100.00
70815;BME280;58428;49.478;10.986;2024-03-22T12:48:06;98426.72;;;18.94;100.00